Terminal Aerodrome Forecast
Issued by NWS

Home | Current Version | Previous Version | Text Only | Print | Product List | Glossary On
Versions: 1 2 3 4 5 6 7 8 9 10 11 12 13 14 15
000
FTUS46 KSGX 021726
TAFONT
TAF
KONT 021726Z 0218/0324 VRB06KT P6SM SCT150 BKN200
     FM022100 25011KT P6SM FEW080 SCT200
     FM030500 VRB05KT P6SM FEW200
     FM031300 VRB04KT 4SM BR FEW005
     FM031600 VRB04KT P6SM SKC
      TEMPO 0316/0318 6SM HZ
     FM032100 25011KT P6SM SKC=

USA.gov is the U.S. government's official web portal to all federal, state and local government web resources and services.